Time;durP1;ratioP1;P1;durP2;ratioP2;P2;SDS_P1;SDS_P2;PMS_P1;PMS_P2;Temp;Humidity;BMP_temperature;BMP_pressure;BME280_temperature;BME280_humidity;BME280_pressure;Samples;Min_cycle;Max_cycle;Signal;HPM_P1;HPM_P2
2023/09/28 00:02:52;;;;;;;4.03;3.60;;;;;;;;;;4994698;28;100060;-74
2023/09/28 00:05:19;;;;;;;8.90;3.95;;;;;;;;;;5003914;28;100930;-72
2023/09/28 00:07:47;;;;;;;4.22;3.78;;;;;;;;;;4998287;28;100022;-72
2023/09/28 00:10:15;;;;;;;3.90;3.50;;;;;;;;;;4999379;28;99933;-72
2023/09/28 00:12:42;;;;;;;7.03;3.92;;;;;;;;;;4993587;28;100343;-74
2023/09/28 00:15:09;;;;;;;4.03;3.63;;;;;;;;;;4995142;28;100121;-72
2023/09/28 00:17:38;;;;;;;3.90;3.60;;;;;;;;;;4994000;28;100916;-72
2023/09/28 00:20:09;;;;;;;5.35;4.18;;;;;;;;;;4992636;28;100154;-73
2023/09/28 00:22:36;;;;;;;3.63;3.33;;;;;;;;;;4996280;28;99765;-73
2023/09/28 00:25:09;;;;;;;4.22;3.50;;;;;;;;;;4995793;28;100440;-74
2023/09/28 00:27:35;;;;;;;;;;;;;;;;;;4997946;28;100158;-73
2023/09/28 00:30:03;;;;;;;5.18;3.88;;;;;;;;;;4996925;28;110452;-73
2023/09/28 00:32:31;;;;;;;3.65;3.35;;;;;;;;;;4994274;28;99897;-73
2023/09/28 00:34:58;;;;;;;4.10;3.78;;;;;;;;;;4996437;28;100481;-72
2023/09/28 00:37:24;;;;;;;3.80;3.33;;;;;;;;;;4995745;28;100278;-72
2023/09/28 00:39:54;;;;;;;5.55;3.38;;;;;;;;;;5029272;27;101067;-73
2023/09/28 00:42:22;;;;;;;3.60;3.30;;;;;;;;;;4995875;28;101000;-72
2023/09/28 00:44:48;;;;;;;11.43;3.42;;;;;;;;;;4997610;28;100675;-72
2023/09/28 00:47:15;;;;;;;3.30;3.10;;;;;;;;;;4988418;28;100274;-73
2023/09/28 00:49:44;;;;;;;5.78;3.35;;;;;;;;;;4995909;28;100199;-73
2023/09/28 00:52:16;;;;;;;4.53;3.17;;;;;;;;;;4993746;28;100150;-73
2023/09/28 00:54:46;;;;;;;3.28;3.08;;;;;;;;;;4994856;28;102047;-72
2023/09/28 00:57:13;;;;;;;3.50;3.17;;;;;;;;;;4997403;28;100345;-73
2023/09/28 00:59:40;;;;;;;9.48;3.65;;;;;;;;;;4998615;28;100943;-73
2023/09/28 01:02:08;;;;;;;4.07;3.38;;;;;;;;;;4996295;28;101791;-73
2023/09/28 01:04:35;;;;;;;3.50;3.30;;;;;;;;;;4996596;28;101014;-74
2023/09/28 01:07:03;;;;;;;4.68;3.30;;;;;;;;;;4994299;28;102008;-73
2023/09/28 01:09:30;;;;;;;3.83;3.40;;;;;;;;;;5000663;28;100060;-73
2023/09/28 01:11:59;;;;;;;3.30;3.10;;;;;;;;;;5010810;28;102074;-73
2023/09/28 01:14:27;;;;;;;4.40;3.42;;;;;;;;;;4992448;28;99901;-72
2023/09/28 01:16:53;;;;;;;3.47;3.17;;;;;;;;;;5005120;28;100542;-73
2023/09/28 01:19:20;;;;;;;6.50;3.60;;;;;;;;;;4996362;28;100217;-73
2023/09/28 01:21:47;;;;;;;6.03;3.63;;;;;;;;;;4990566;28;99405;-74
2023/09/28 01:24:13;;;;;;;4.50;3.75;;;;;;;;;;4991725;28;101869;-73
2023/09/28 01:26:40;;;;;;;5.80;3.47;;;;;;;;;;4994546;28;99687;-73
2023/09/28 01:29:07;;;;;;;5.93;3.20;;;;;;;;;;5002349;28;101576;-72
2023/09/28 01:31:33;;;;;;;5.40;3.53;;;;;;;;;;4999880;28;99436;-73
2023/09/28 01:34:00;;;;;;;5.28;3.35;;;;;;;;;;4990970;28;102013;-73
2023/09/28 01:36:27;;;;;;;4.95;3.65;;;;;;;;;;4990503;28;102069;-73
2023/09/28 01:39:07;;;;;;;5.75;2.95;;;;;;;;;;5015094;27;99827;-73
2023/09/28 01:41:34;;;;;;;4.78;3.60;;;;;;;;;;4993641;28;99959;-74
2023/09/28 01:44:01;;;;;;;3.75;3.42;;;;;;;;;;4997673;28;100946;-73
2023/09/28 01:46:28;;;;;;;5.40;3.15;;;;;;;;;;4991323;28;101599;-74
2023/09/28 01:48:54;;;;;;;5.85;3.15;;;;;;;;;;4992504;28;98833;-74
2023/09/28 01:51:22;;;;;;;3.55;3.25;;;;;;;;;;4994466;28;100574;-73
2023/09/28 01:53:49;;;;;;;6.05;3.50;;;;;;;;;;5000633;28;100427;-73
2023/09/28 01:56:16;;;;;;;6.00;3.25;;;;;;;;;;4993699;28;99334;-73
2023/09/28 01:58:42;;;;;;;5.40;3.47;;;;;;;;;;4995690;28;100336;-73
2023/09/28 02:01:20;;;;;;;4.45;3.55;;;;;;;;;;4994056;28;100829;-74
2023/09/28 02:03:46;;;;;;;5.60;4.07;;;;;;;;;;4996390;28;100097;-73
2023/09/28 02:06:14;;;;;;;4.13;3.63;;;;;;;;;;4994494;28;100843;-73
2023/09/28 02:08:41;;;;;;;4.95;4.50;;;;;;;;;;4991848;28;100142;-73
2023/09/28 02:11:09;;;;;;;5.88;3.50;;;;;;;;;;4988988;28;99211;-74
2023/09/28 02:13:36;;;;;;;4.47;4.07;;;;;;;;;;4995952;28;101450;-73
2023/09/28 02:16:07;;;;;;;7.45;4.10;;;;;;;;;;4995535;28;100074;-74
2023/09/28 02:18:34;;;;;;;3.90;3.60;;;;;;;;;;4991863;28;100209;-74
2023/09/28 02:21:03;;;;;;;6.65;3.53;;;;;;;;;;4993525;28;101085;-74
2023/09/28 02:23:29;;;;;;;3.90;3.60;;;;;;;;;;4993154;28;101359;-73
2023/09/28 02:26:03;;;;;;;5.68;3.65;;;;;;;;;;4991385;28;99136;-73
2023/09/28 02:28:29;;;;;;;3.78;3.45;;;;;;;;;;4996358;28;99970;-74
2023/09/28 02:31:02;;;;;;;4.47;3.85;;;;;;;;;;4990263;28;99104;-74
2023/09/28 02:33:29;;;;;;;3.35;3.05;;;;;;;;;;4992823;28;100063;-73
2023/09/28 02:35:56;;;;;;;4.03;3.72;;;;;;;;;;4993478;28;100107;-74
2023/09/28 02:38:23;;;;;;;4.18;3.85;;;;;;;;;;4993868;28;99192;-73
2023/09/28 02:40:49;;;;;;;6.88;4.13;;;;;;;;;;4988237;28;99959;-73
2023/09/28 02:43:16;;;;;;;4.45;3.78;;;;;;;;;;4995015;28;102178;-73
2023/09/28 02:45:43;;;;;;;4.30;3.63;;;;;;;;;;4993646;28;100832;-73
2023/09/28 02:48:10;;;;;;;5.88;4.03;;;;;;;;;;4991567;28;100165;-75
2023/09/28 02:50:37;;;;;;;5.50;4.15;;;;;;;;;;4997547;28;101481;-73
2023/09/28 02:53:05;;;;;;;5.68;4.15;;;;;;;;;;4994136;28;99814;-73
2023/09/28 02:55:32;;;;;;;6.93;4.40;;;;;;;;;;4991773;28;100332;-74
2023/09/28 02:57:59;;;;;;;5.45;4.53;;;;;;;;;;4994963;28;100146;-73
2023/09/28 03:00:28;;;;;;;5.28;4.32;;;;;;;;;;4992568;28;100091;-74
2023/09/28 03:02:58;;;;;;;11.35;4.38;;;;;;;;;;4994702;28;100858;-74
2023/09/28 03:05:26;;;;;;;6.63;4.10;;;;;;;;;;4991970;28;102002;-73
2023/09/28 03:07:53;;;;;;;4.93;4.40;;;;;;;;;;4992736;28;100815;-75
2023/09/28 03:10:20;;;;;;;11.50;4.15;;;;;;;;;;4992604;28;101897;-74
2023/09/28 03:12:47;;;;;;;5.07;4.55;;;;;;;;;;4989185;28;99288;-75
2023/09/28 03:15:16;;;;;;;5.10;3.90;;;;;;;;;;4992661;28;100877;-73
2023/09/28 03:17:46;;;;;;;6.68;4.57;;;;;;;;;;4988111;28;101325;-74
2023/09/28 03:20:17;;;;;;;4.15;3.83;;;;;;;;;;5000915;28;100433;-72
2023/09/28 03:22:45;;;;;;;11.15;4.32;;;;;;;;;;4995962;28;100624;-73
2023/09/28 03:25:18;;;;;;;5.10;4.32;;;;;;;;;;4993452;28;100263;-72
2023/09/28 03:27:47;;;;;;;5.18;3.90;;;;;;;;;;4992878;28;100068;-72
2023/09/28 03:30:14;;;;;;;9.43;5.10;;;;;;;;;;4995217;28;100083;-74
2023/09/28 03:32:41;;;;;;;5.38;4.25;;;;;;;;;;4997249;28;100300;-73
2023/09/28 03:35:09;;;;;;;7.55;4.50;;;;;;;;;;4998136;28;100441;-74
2023/09/28 03:37:36;;;;;;;5.68;3.92;;;;;;;;;;4991787;28;100707;-73
2023/09/28 03:40:12;;;;;;;5.50;5.00;;;;;;;;;;4994929;28;99644;-72
2023/09/28 03:42:39;;;;;;;7.18;4.65;;;;;;;;;;5003159;28;100372;-74
2023/09/28 03:45:08;;;;;;;5.80;5.25;;;;;;;;;;4993318;28;99735;-73
2023/09/28 03:47:39;;;;;;;5.28;4.78;;;;;;;;;;5001715;28;99932;-74
2023/09/28 03:50:06;;;;;;;11.55;4.85;;;;;;;;;;4993631;28;100192;-73
2023/09/28 03:52:37;;;;;;;5.20;4.80;;;;;;;;;;4994614;27;99837;-73
2023/09/28 03:55:10;;;;;;;7.80;4.97;;;;;;;;;;4992979;28;100078;-73
2023/09/28 03:57:37;;;;;;;5.55;4.75;;;;;;;;;;4993458;28;101860;-74
2023/09/28 04:00:06;;;;;;;5.85;4.60;;;;;;;;;;4992047;28;101712;-74
2023/09/28 04:02:39;;;;;;;8.23;4.38;;;;;;;;;;4997641;28;100739;-73
2023/09/28 04:05:06;;;;;;;5.85;4.80;;;;;;;;;;4995403;28;100501;-74
2023/09/28 04:07:33;;;;;;;5.35;4.60;;;;;;;;;;4992534;28;100707;-73
2023/09/28 04:10:00;;;;;;;6.03;4.90;;;;;;;;;;4996126;28;100206;-74
2023/09/28 04:12:27;;;;;;;6.85;4.53;;;;;;;;;;4995616;28;100122;-72
2023/09/28 04:14:54;;;;;;;6.43;4.40;;;;;;;;;;4997614;28;100467;-74
2023/09/28 04:17:21;;;;;;;5.93;4.85;;;;;;;;;;4996484;28;100002;-72
2023/09/28 04:19:48;;;;;;;5.78;4.40;;;;;;;;;;4996579;28;99665;-72
2023/09/28 04:22:16;;;;;;;5.72;4.25;;;;;;;;;;4997185;28;100558;-73
2023/09/28 04:24:43;;;;;;;6.78;4.78;;;;;;;;;;4989910;28;99844;-72
2023/09/28 04:27:09;;;;;;;9.30;5.78;;;;;;;;;;5002266;28;100530;-73
2023/09/28 04:29:36;;;;;;;5.68;5.18;;;;;;;;;;4995987;28;100843;-73
2023/09/28 04:32:03;;;;;;;12.27;5.88;;;;;;;;;;4991475;28;100686;-74
2023/09/28 04:34:29;;;;;;;5.43;4.93;;;;;;;;;;4993558;28;100183;-72
2023/09/28 04:36:57;;;;;;;9.45;5.47;;;;;;;;;;4998302;28;99950;-72
2023/09/28 04:39:24;;;;;;;6.55;5.43;;;;;;;;;;4998114;28;100355;-72
2023/09/28 04:41:54;;;;;;;7.65;5.75;;;;;;;;;;4991876;28;100890;-73
2023/09/28 04:44:21;;;;;;;6.25;5.65;;;;;;;;;;4994000;28;100587;-74
2023/09/28 04:46:50;;;;;;;6.30;5.47;;;;;;;;;;4990714;28;100081;-73
2023/09/28 04:49:17;;;;;;;8.57;5.63;;;;;;;;;;5004085;28;101596;-73
2023/09/28 04:51:44;;;;;;;9.48;5.95;;;;;;;;;;4996585;28;100847;-73
2023/09/28 04:54:11;;;;;;;7.95;6.93;;;;;;;;;;4998517;28;99217;-72
2023/09/28 04:56:38;;;;;;;10.18;5.72;;;;;;;;;;4995906;28;100161;-73
2023/09/28 04:59:04;;;;;;;10.38;7.00;;;;;;;;;;4994888;28;99945;-73
2023/09/28 05:01:31;;;;;;;6.88;6.18;;;;;;;;;;4993064;28;101330;-73
2023/09/28 05:03:57;;;;;;;9.23;5.93;;;;;;;;;;4992899;28;100294;-73
2023/09/28 05:06:24;;;;;;;11.95;7.10;;;;;;;;;;4996428;28;100696;-73
2023/09/28 05:08:50;;;;;;;10.65;6.25;;;;;;;;;;4996317;28;100251;-74
2023/09/28 05:11:17;;;;;;;10.35;7.82;;;;;;;;;;4997363;28;99954;-75
2023/09/28 05:13:43;;;;;;;18.38;6.72;;;;;;;;;;4991925;28;100078;-73
2023/09/28 05:16:10;;;;;;;11.18;6.22;;;;;;;;;;4993967;28;101649;-73
2023/09/28 05:18:37;;;;;;;22.60;6.30;;;;;;;;;;4993317;28;100953;-72
2023/09/28 05:21:03;;;;;;;12.30;5.78;;;;;;;;;;4990406;28;101379;-74
2023/09/28 05:23:30;;;;;;;14.10;6.18;;;;;;;;;;4989452;28;100518;-73
2023/09/28 05:25:56;;;;;;;11.60;5.72;;;;;;;;;;4996365;28;100463;-72
2023/09/28 05:28:23;;;;;;;15.50;5.38;;;;;;;;;;4995380;28;99545;-73
2023/09/28 05:30:50;;;;;;;11.43;4.88;;;;;;;;;;4999710;28;99289;-73
2023/09/28 05:33:17;;;;;;;16.05;4.85;;;;;;;;;;4992673;28;101894;-73
2023/09/28 05:35:44;;;;;;;13.30;5.38;;;;;;;;;;4988525;28;99877;-72
2023/09/28 05:38:10;;;;;;;13.32;5.07;;;;;;;;;;4992542;28;100676;-74
2023/09/28 05:40:37;;;;;;;10.32;4.65;;;;;;;;;;4994793;28;100048;-72
2023/09/28 05:43:03;;;;;;;15.38;5.00;;;;;;;;;;4991651;28;100542;-73
2023/09/28 05:45:32;;;;;;;14.82;4.90;;;;;;;;;;4994308;28;100022;-74
2023/09/28 05:47:58;;;;;;;15.32;5.20;;;;;;;;;;4993167;28;100217;-74
2023/09/28 05:50:25;;;;;;;23.67;5.03;;;;;;;;;;4993483;28;100077;-72
2023/09/28 05:52:55;;;;;;;19.00;5.28;;;;;;;;;;4998496;28;100274;-74
2023/09/28 05:55:22;;;;;;;21.00;4.97;;;;;;;;;;4993413;28;100081;-73
2023/09/28 05:57:51;;;;;;;15.85;5.15;;;;;;;;;;4995903;28;99644;-73
2023/09/28 06:00:17;;;;;;;14.13;4.60;;;;;;;;;;4993587;28;99889;-72
2023/09/28 06:02:44;;;;;;;17.08;4.32;;;;;;;;;;4992337;28;100968;-72
2023/09/28 06:05:11;;;;;;;17.23;4.38;;;;;;;;;;4992177;28;99307;-73
2023/09/28 06:07:38;;;;;;;26.58;4.30;;;;;;;;;;4991923;28;100761;-74
2023/09/28 06:10:08;;;;;;;17.70;3.65;;;;;;;;;;4990676;28;100570;-73
2023/09/28 06:12:34;;;;;;;11.55;3.47;;;;;;;;;;4991613;28;100168;-73
2023/09/28 06:15:01;;;;;;;19.55;4.97;;;;;;;;;;4995598;28;100334;-74
2023/09/28 06:17:28;;;;;;;20.67;3.90;;;;;;;;;;4989120;28;100076;-74
2023/09/28 06:19:55;;;;;;;16.60;3.83;;;;;;;;;;4993148;28;100184;-73
2023/09/28 06:22:24;;;;;;;15.40;4.15;;;;;;;;;;4986340;28;100762;-73
2023/09/28 06:24:50;;;;;;;17.48;4.25;;;;;;;;;;4991351;28;99709;-75
2023/09/28 06:27:17;;;;;;;19.00;4.22;;;;;;;;;;4993493;28;101505;-73
2023/09/28 06:29:44;;;;;;;25.15;4.00;;;;;;;;;;4997535;28;99794;-74
2023/09/28 06:32:10;;;;;;;16.15;3.85;;;;;;;;;;4992484;28;100313;-73
2023/09/28 06:34:37;;;;;;;22.05;3.72;;;;;;;;;;4998682;28;100274;-73
2023/09/28 06:37:03;;;;;;;15.77;3.83;;;;;;;;;;4997826;28;100479;-73
2023/09/28 06:39:30;;;;;;;28.33;5.85;;;;;;;;;;4988696;28;100325;-73
2023/09/28 06:41:57;;;;;;;17.70;3.58;;;;;;;;;;5002692;28;99606;-74
2023/09/28 06:44:38;;;;;;;23.35;4.18;;;;;;;;;;4998453;28;99864;-75
2023/09/28 06:47:05;;;;;;;19.17;4.85;;;;;;;;;;4997815;28;100710;-73
2023/09/28 06:49:32;;;;;;;25.70;5.28;;;;;;;;;;4997534;28;100411;-76
2023/09/28 06:51:59;;;;;;;17.40;4.53;;;;;;;;;;4998660;28;100876;-76
2023/09/28 06:54:25;;;;;;;28.85;5.28;;;;;;;;;;5003796;28;100144;-74
2023/09/28 06:56:51;;;;;;;29.17;4.28;;;;;;;;;;4996764;28;99967;-72
2023/09/28 06:59:18;;;;;;;16.83;3.75;;;;;;;;;;5004132;28;100211;-73
2023/09/28 07:01:45;;;;;;;31.40;5.00;;;;;;;;;;5000294;28;100059;-74
2023/09/28 07:04:11;;;;;;;20.75;4.35;;;;;;;;;;4991541;28;99320;-74
2023/09/28 07:06:38;;;;;;;21.23;4.28;;;;;;;;;;4983996;28;99241;-73
2023/09/28 07:09:05;;;;;;;16.35;3.08;;;;;;;;;;4993551;28;100398;-75
2023/09/28 07:11:32;;;;;;;26.73;4.05;;;;;;;;;;4985781;28;100267;-72
2023/09/28 07:13:58;;;;;;;17.95;4.40;;;;;;;;;;4990795;28;100065;-72
2023/09/28 07:16:25;;;;;;;24.73;4.70;;;;;;;;;;4988906;28;101012;-73
2023/09/28 07:18:52;;;;;;;22.45;4.28;;;;;;;;;;4994490;28;100189;-73
2023/09/28 07:21:18;;;;;;;22.58;4.88;;;;;;;;;;4987596;28;100640;-74
2023/09/28 07:23:45;;;;;;;21.35;3.92;;;;;;;;;;4993685;28;100050;-72
2023/09/28 07:26:13;;;;;;;21.77;3.22;;;;;;;;;;4992249;28;100188;-73
2023/09/28 07:28:39;;;;;;;21.63;4.47;;;;;;;;;;4989947;28;101983;-73
2023/09/28 07:31:06;;;;;;;21.23;3.55;;;;;;;;;;4987747;28;100879;-73
2023/09/28 07:33:34;;;;;;;16.70;3.60;;;;;;;;;;4992523;28;99002;-74
2023/09/28 07:36:05;;;;;;;21.10;4.65;;;;;;;;;;4986949;28;99258;-74
2023/09/28 07:38:35;;;;;;;13.48;3.63;;;;;;;;;;4991679;28;101014;-74
2023/09/28 07:41:02;;;;;;;25.98;5.75;;;;;;;;;;4990601;28;101682;-73
2023/09/28 07:43:29;;;;;;;23.85;4.68;;;;;;;;;;4988280;28;100641;-72
2023/09/28 07:45:56;;;;;;;19.77;3.70;;;;;;;;;;4994256;28;99771;-72
2023/09/28 07:48:22;;;;;;;25.17;3.85;;;;;;;;;;4989189;28;100294;-74
2023/09/28 07:50:49;;;;;;;28.48;4.45;;;;;;;;;;4992931;28;100268;-74
2023/09/28 07:53:15;;;;;;;21.00;4.35;;;;;;;;;;5007361;28;100369;-73
2023/09/28 07:55:42;;;;;;;21.95;3.83;;;;;;;;;;4996742;28;100039;-73
2023/09/28 07:58:09;;;;;;;18.15;3.50;;;;;;;;;;4994683;28;98998;-73
2023/09/28 08:00:52;;;;;;;25.05;4.70;;;;;;;;;;5002108;28;100331;-72
2023/09/28 08:03:19;;;;;;;18.33;4.03;;;;;;;;;;4990582;28;99012;-74
2023/09/28 08:05:45;;;;;;;20.90;4.55;;;;;;;;;;4996342;28;99958;-75
2023/09/28 08:08:12;;;;;;;25.40;3.60;;;;;;;;;;4982648;28;99934;-74
2023/09/28 08:10:44;;;;;;;22.90;4.83;;;;;;;;;;4987582;28;99770;-74
2023/09/28 08:13:10;;;;;;;20.08;4.43;;;;;;;;;;4986163;28;100072;-73
2023/09/28 08:15:40;;;;;;;17.83;3.42;;;;;;;;;;4988822;28;100920;-73
2023/09/28 08:18:08;;;;;;;23.73;4.40;;;;;;;;;;4987290;28;99766;-73
2023/09/28 08:20:35;;;;;;;22.58;4.97;;;;;;;;;;4988549;28;101907;-73
2023/09/28 08:23:04;;;;;;;23.70;3.97;;;;;;;;;;4983786;28;100004;-74
2023/09/28 08:25:31;;;;;;;19.60;4.35;;;;;;;;;;4990068;28;100939;-73
2023/09/28 08:27:58;;;;;;;24.27;3.83;;;;;;;;;;4999793;28;99876;-74
2023/09/28 08:30:24;;;;;;;21.75;3.65;;;;;;;;;;4998255;28;100941;-73
2023/09/28 08:32:52;;;;;;;18.30;3.33;;;;;;;;;;4993988;28;99801;-73
2023/09/28 08:35:20;;;;;;;22.80;4.75;;;;;;;;;;4996297;28;100283;-73
2023/09/28 08:37:47;;;;;;;20.25;3.80;;;;;;;;;;5001757;28;100290;-73
2023/09/28 08:40:13;;;;;;;26.15;5.70;;;;;;;;;;5009063;28;99995;-75
2023/09/28 08:42:41;;;;;;;24.13;4.82;;;;;;;;;;5013572;28;99873;-72
2023/09/28 08:45:12;;;;;;;20.93;4.50;;;;;;;;;;5003519;28;100186;-73
2023/09/28 08:47:45;;;;;;;20.70;4.13;;;;;;;;;;5004630;28;100229;-74
2023/09/28 08:50:15;;;;;;;26.13;4.10;;;;;;;;;;4995558;28;99737;-74
2023/09/28 08:52:41;;;;;;;16.92;3.65;;;;;;;;;;5000359;28;100019;-73
2023/09/28 08:55:08;;;;;;;18.52;3.78;;;;;;;;;;4999042;28;99876;-73
2023/09/28 08:57:35;;;;;;;18.13;3.40;;;;;;;;;;4995553;28;100313;-74
2023/09/28 09:00:02;;;;;;;22.48;4.10;;;;;;;;;;4999662;28;99364;-73
2023/09/28 09:02:28;;;;;;;21.83;3.60;;;;;;;;;;5001374;28;99095;-74
2023/09/28 09:04:55;;;;;;;19.17;5.40;;;;;;;;;;5001127;28;99869;-73
2023/09/28 09:07:22;;;;;;;19.85;4.35;;;;;;;;;;4993329;28;100842;-73
2023/09/28 09:09:48;;;;;;;21.52;4.20;;;;;;;;;;5005246;28;100027;-73
2023/09/28 09:12:15;;;;;;;22.90;6.13;;;;;;;;;;5001438;28;100419;-73
2023/09/28 09:14:44;;;;;;;16.27;3.83;;;;;;;;;;4994816;28;98739;-74
2023/09/28 09:17:11;;;;;;;23.73;4.25;;;;;;;;;;4995298;28;100122;-74
2023/09/28 09:19:38;;;;;;;20.08;4.22;;;;;;;;;;5001893;28;100032;-73
2023/09/28 09:22:05;;;;;;;23.23;4.28;;;;;;;;;;4993872;28;101077;-73
2023/09/28 09:24:51;;;;;;;16.77;5.40;;;;;;;;;;4991676;28;98982;-72
2023/09/28 09:27:24;;;;;;;34.00;6.15;;;;;;;;;;5001828;28;99948;-72
2023/09/28 09:29:52;;;;;;;23.88;3.85;;;;;;;;;;4993260;28;99472;-72
2023/09/28 09:32:22;;;;;;;16.60;3.55;;;;;;;;;;4995629;28;99254;-72
2023/09/28 09:34:50;;;;;;;13.55;3.92;;;;;;;;;;4997581;28;99423;-75
2023/09/28 09:37:17;;;;;;;22.70;3.88;;;;;;;;;;4999977;28;98591;-75
2023/09/28 09:39:44;;;;;;;17.65;3.58;;;;;;;;;;5015863;28;98863;-75
2023/09/28 09:42:11;;;;;;;17.80;3.50;;;;;;;;;;5007672;28;99342;-76
2023/09/28 09:44:38;;;;;;;22.27;4.03;;;;;;;;;;5003049;28;101220;-76
2023/09/28 09:47:07;;;;;;;17.05;3.85;;;;;;;;;;5003284;27;100131;-76
2023/09/28 09:49:33;;;;;;;22.08;3.75;;;;;;;;;;5004251;28;99147;-77
2023/09/28 09:52:06;;;;;;;17.02;3.75;;;;;;;;;;5001554;28;100509;-76
2023/09/28 09:54:33;;;;;;;20.15;4.70;;;;;;;;;;5001906;28;99225;-74
2023/09/28 09:57:01;;;;;;;19.27;5.05;;;;;;;;;;4990905;28;100387;-74
2023/09/28 09:59:29;;;;;;;19.65;4.15;;;;;;;;;;4998953;28;100394;-74
2023/09/28 10:01:56;;;;;;;16.23;3.30;;;;;;;;;;4998459;27;99152;-75
2023/09/28 10:04:23;;;;;;;19.85;3.33;;;;;;;;;;5001098;28;99370;-74
2023/09/28 10:06:58;;;;;;;14.93;3.08;;;;;;;;;;4996976;27;100559;-74
2023/09/28 10:09:25;;;;;;;20.42;4.30;;;;;;;;;;5001988;28;100114;-74
2023/09/28 10:11:54;;;;;;;22.70;4.72;;;;;;;;;;5003922;28;100061;-73
2023/09/28 10:14:21;;;;;;;17.40;4.57;;;;;;;;;;5007640;28;100143;-74
2023/09/28 10:16:49;;;;;;;19.67;3.92;;;;;;;;;;5003376;28;99439;-74
2023/09/28 10:19:19;;;;;;;19.23;4.30;;;;;;;;;;5004135;28;99008;-74
2023/09/28 10:21:46;;;;;;;18.35;3.33;;;;;;;;;;5004716;28;100407;-74
2023/09/28 10:24:15;;;;;;;17.42;3.40;;;;;;;;;;5003853;28;100186;-74
2023/09/28 10:26:42;;;;;;;23.52;4.15;;;;;;;;;;4997279;28;99974;-74
2023/09/28 10:29:12;;;;;;;12.98;3.40;;;;;;;;;;5004913;28;99644;-73
2023/09/28 10:31:42;;;;;;;19.88;4.53;;;;;;;;;;5003142;28;99337;-74
2023/09/28 10:34:21;;;;;;;13.73;4.22;;;;;;;;;;5004388;28;99737;-73
2023/09/28 10:37:07;;;;;;;13.98;3.45;;;;;;;;;;5002362;28;100994;-75
2023/09/28 10:39:35;;;;;;;18.65;3.05;;;;;;;;;;5005076;28;100281;-73
2023/09/28 10:42:08;;;;;;;17.38;3.72;;;;;;;;;;5004708;28;99699;-74
2023/09/28 10:44:55;;;;;;;15.93;3.50;;;;;;;;;;5003638;28;100224;-74
2023/09/28 10:47:23;;;;;;;17.67;3.88;;;;;;;;;;5001631;28;99782;-75
2023/09/28 10:49:59;;;;;;;22.42;4.32;;;;;;;;;;5003702;28;100178;-75
2023/09/28 10:52:28;;;;;;;17.77;3.63;;;;;;;;;;4998862;28;99732;-75
2023/09/28 10:54:55;;;;;;;13.65;3.67;;;;;;;;;;4995978;28;99050;-75
2023/09/28 10:57:31;;;;;;;21.63;4.47;;;;;;;;;;4989964;28;99086;-74
2023/09/28 11:00:03;;;;;;;15.27;3.30;;;;;;;;;;5001943;28;101253;-74
2023/09/28 11:02:35;;;;;;;17.90;3.38;;;;;;;;;;4987326;28;100490;-73
2023/09/28 11:05:02;;;;;;;17.08;4.05;;;;;;;;;;4991263;28;100496;-73
2023/09/28 11:07:29;;;;;;;14.30;4.22;;;;;;;;;;4988767;28;99106;-72
2023/09/28 11:09:58;;;;;;;15.25;3.42;;;;;;;;;;4994677;28;100199;-74
2023/09/28 11:12:28;;;;;;;14.95;3.22;;;;;;;;;;4995050;28;100222;-74
2023/09/28 11:14:58;;;;;;;16.05;3.60;;;;;;;;;;5000206;28;100912;-74
2023/09/28 11:17:26;;;;;;;10.88;2.80;;;;;;;;;;5000374;28;100445;-74
2023/09/28 11:19:52;;;;;;;21.52;3.83;;;;;;;;;;5002616;28;100236;-74
2023/09/28 11:22:19;;;;;;;19.10;3.85;;;;;;;;;;4998281;28;98836;-72
2023/09/28 11:24:45;;;;;;;21.00;3.53;;;;;;;;;;4996829;28;101236;-74
2023/09/28 11:27:12;;;;;;;27.05;4.25;;;;;;;;;;4989919;28;99806;-73
2023/09/28 11:29:40;;;;;;;19.48;3.25;;;;;;;;;;4995356;28;100415;-73
2023/09/28 11:32:07;;;;;;;23.60;3.58;;;;;;;;;;5002157;28;101733;-74
2023/09/28 11:34:37;;;;;;;18.65;3.80;;;;;;;;;;4999501;28;100246;-74
2023/09/28 11:37:10;;;;;;;20.10;4.75;;;;;;;;;;4997270;28;100394;-72
2023/09/28 11:39:40;;;;;;;21.90;4.35;;;;;;;;;;4996607;28;100408;-72
2023/09/28 11:42:07;;;;;;;10.45;2.65;;;;;;;;;;5005391;28;100516;-74
2023/09/28 11:44:34;;;;;;;14.35;3.90;;;;;;;;;;4997267;28;100819;-74
2023/09/28 11:47:01;;;;;;;18.13;4.22;;;;;;;;;;5003977;28;99873;-73
2023/09/28 11:49:28;;;;;;;13.50;4.03;;;;;;;;;;5005524;28;100165;-74
2023/09/28 11:51:55;;;;;;;15.90;3.58;;;;;;;;;;5005618;28;99229;-75
2023/09/28 11:54:22;;;;;;;16.00;4.15;;;;;;;;;;5005698;28;99304;-73
2023/09/28 11:56:49;;;;;;;15.20;3.10;;;;;;;;;;5001552;28;99917;-75
2023/09/28 11:59:17;;;;;;;18.48;3.78;;;;;;;;;;4999528;28;100484;-75
2023/09/28 12:01:46;;;;;;;20.52;3.63;;;;;;;;;;5003007;28;99128;-75
2023/09/28 12:04:13;;;;;;;15.38;3.60;;;;;;;;;;5005525;28;100240;-75
2023/09/28 12:06:40;;;;;;;18.70;2.97;;;;;;;;;;5004285;28;99049;-74
2023/09/28 12:09:08;;;;;;;17.30;3.53;;;;;;;;;;5003951;28;98929;-73
2023/09/28 12:11:37;;;;;;;16.90;3.63;;;;;;;;;;5005076;28;99209;-75
2023/09/28 12:14:04;;;;;;;15.73;3.58;;;;;;;;;;4993605;28;99948;-72
2023/09/28 12:16:30;;;;;;;22.27;3.65;;;;;;;;;;4999472;28;100324;-71
2023/09/28 12:18:57;;;;;;;18.30;3.15;;;;;;;;;;4997287;28;100455;-71
2023/09/28 12:21:24;;;;;;;21.35;4.05;;;;;;;;;;5000687;28;99098;-73
2023/09/28 12:23:50;;;;;;;14.93;3.60;;;;;;;;;;5005559;28;100989;-72
2023/09/28 12:26:17;;;;;;;16.98;3.67;;;;;;;;;;5006431;28;100651;-72
2023/09/28 12:28:44;;;;;;;21.30;3.78;;;;;;;;;;4993433;28;101466;-73
2023/09/28 12:31:12;;;;;;;10.65;2.35;;;;;;;;;;4993686;28;99709;-72
2023/09/28 12:33:39;;;;;;;14.98;4.15;;;;;;;;;;4998610;28;99842;-73
2023/09/28 12:36:05;;;;;;;17.50;2.63;;;;;;;;;;4998509;28;100868;-72
2023/09/28 12:38:32;;;;;;;15.45;3.60;;;;;;;;;;4986767;28;101622;-72
2023/09/28 12:40:59;;;;;;;16.50;3.78;;;;;;;;;;4992535;28;100376;-73
2023/09/28 12:43:26;;;;;;;16.80;3.75;;;;;;;;;;4991091;28;100552;-73
2023/09/28 12:45:53;;;;;;;15.02;3.30;;;;;;;;;;4987522;28;100276;-71
2023/09/28 12:48:20;;;;;;;12.90;2.92;;;;;;;;;;4995501;28;100217;-72
2023/09/28 12:50:47;;;;;;;17.42;4.15;;;;;;;;;;4996988;28;100406;-72
2023/09/28 12:53:14;;;;;;;18.23;3.88;;;;;;;;;;4997990;28;99105;-72
2023/09/28 12:55:44;;;;;;;14.85;3.38;;;;;;;;;;4992476;28;100794;-73
2023/09/28 12:58:10;;;;;;;19.13;4.40;;;;;;;;;;4990635;28;99675;-73
2023/09/28 13:00:38;;;;;;;14.60;3.03;;;;;;;;;;4994193;28;100021;-73
2023/09/28 13:03:09;;;;;;;19.55;3.20;;;;;;;;;;4995865;28;100395;-73
2023/09/28 13:05:41;;;;;;;15.15;3.53;;;;;;;;;;4994174;28;100748;-73
2023/09/28 13:08:13;;;;;;;12.07;2.90;;;;;;;;;;4993711;28;100036;-72
2023/09/28 13:10:40;;;;;;;16.17;3.30;;;;;;;;;;4995679;28;99899;-74
2023/09/28 13:13:07;;;;;;;11.65;3.03;;;;;;;;;;4994610;28;100507;-73
2023/09/28 13:15:34;;;;;;;11.27;3.28;;;;;;;;;;4992275;28;100631;-72
2023/09/28 13:18:01;;;;;;;12.60;3.15;;;;;;;;;;4993830;28;100114;-73
2023/09/28 13:20:28;;;;;;;14.63;2.88;;;;;;;;;;4995880;28;100266;-73
2023/09/28 13:22:57;;;;;;;16.63;3.00;;;;;;;;;;5004377;28;99087;-73
2023/09/28 13:25:24;;;;;;;15.13;3.67;;;;;;;;;;5004510;28;99459;-74
2023/09/28 13:27:51;;;;;;;6.05;2.20;;;;;;;;;;4993317;28;101463;-73
2023/09/28 13:30:22;;;;;;;11.07;2.35;;;;;;;;;;4999534;28;101073;-74
2023/09/28 13:32:50;;;;;;;10.00;2.63;;;;;;;;;;5001984;28;100247;-73
2023/09/28 13:35:17;;;;;;;7.28;2.50;;;;;;;;;;4997357;28;99765;-72
2023/09/28 13:37:44;;;;;;;7.90;2.47;;;;;;;;;;4997388;28;99937;-72
2023/09/28 13:40:20;;;;;;;13.50;4.13;;;;;;;;;;4998844;28;100016;-72
2023/09/28 13:42:49;;;;;;;7.78;2.45;;;;;;;;;;5000956;28;100070;-71
2023/09/28 13:45:17;;;;;;;15.07;3.08;;;;;;;;;;5005396;28;99969;-71
2023/09/28 13:47:44;;;;;;;11.95;2.85;;;;;;;;;;5003132;28;99113;-71
2023/09/28 13:50:11;;;;;;;12.63;3.22;;;;;;;;;;4998557;28;98978;-72
2023/09/28 13:52:38;;;;;;;14.95;3.17;;;;;;;;;;5007243;28;99972;-71
2023/09/28 13:55:06;;;;;;;9.77;2.33;;;;;;;;;;5004508;28;99902;-71
2023/09/28 13:57:33;;;;;;;10.23;3.00;;;;;;;;;;5003383;28;100222;-71
2023/09/28 14:00:06;;;;;;;10.82;2.20;;;;;;;;;;5004841;28;99718;-71
2023/09/28 14:02:41;;;;;;;7.60;2.83;;;;;;;;;;5001228;28;98622;-71
2023/09/28 14:05:08;;;;;;;10.00;2.33;;;;;;;;;;4997862;28;99379;-70
2023/09/28 14:07:35;;;;;;;9.50;3.13;;;;;;;;;;5003732;28;99093;-72
2023/09/28 14:10:03;;;;;;;9.95;2.72;;;;;;;;;;5003162;28;99111;-70
2023/09/28 14:12:30;;;;;;;15.80;2.63;;;;;;;;;;5002606;28;99365;-71
2023/09/28 14:14:57;;;;;;;15.65;3.30;;;;;;;;;;5038127;27;99275;-73
2023/09/28 14:17:24;;;;;;;12.85;2.63;;;;;;;;;;5002722;28;101153;-71
2023/09/28 14:19:57;;;;;;;6.50;2.30;;;;;;;;;;5003392;28;99720;-71
2023/09/28 14:22:24;;;;;;;13.70;2.70;;;;;;;;;;5003509;28;100050;-71
2023/09/28 14:24:50;;;;;;;8.07;2.88;;;;;;;;;;5036892;27;100149;-71
2023/09/28 14:27:16;;;;;;;9.93;2.33;;;;;;;;;;5001895;28;100118;-71
2023/09/28 14:29:43;;;;;;;15.93;2.70;;;;;;;;;;5006380;28;99910;-71
2023/09/28 14:32:09;;;;;;;16.95;4.70;;;;;;;;;;5008120;28;99810;-71